Time;durP1;ratioP1;P1;durP2;ratioP2;P2;SDS_P1;SDS_P2;PMS_P1;PMS_P2;Temp;Humidity;BMP_temperature;BMP_pressure;BME280_temperature;BME280_humidity;BME280_pressure;Samples;Min_cycle;Max_cycle;Signal;HPM_P1;HPM_P2
2021/05/05 00:02:19;;;;;;;5.60;2.70;;;;;;;15.77;41.25;99906.03;5036159;28;20124;-80
2021/05/05 00:04:46;;;;;;;5.45;1.85;;;;;;;15.79;41.70;99904.13;5056228;28;20517;-80
2021/05/05 00:07:12;;;;;;;6.05;2.70;;;;;;;15.81;40.97;99904.84;5045698;28;20052;-81
2021/05/05 00:09:39;;;;;;;2.97;2.05;;;;;;;15.81;41.28;99907.47;5052922;28;20044;-81
2021/05/05 00:12:06;;;;;;;3.75;2.00;;;;;;;15.69;41.36;99904.81;5050531;28;20156;-83
2021/05/05 00:14:33;;;;;;;5.78;2.22;;;;;;;15.74;41.49;99901.84;5052768;28;20052;-83
2021/05/05 00:16:59;;;;;;;6.30;3.20;;;;;;;15.69;42.43;99902.19;5053489;28;20641;-78
2021/05/05 00:19:26;;;;;;;2.38;1.90;;;;;;;15.65;42.47;99907.78;5053205;28;20055;-77
2021/05/05 00:21:52;;;;;;;4.25;2.60;;;;;;;15.44;43.67;99897.09;5045489;28;20071;-77
2021/05/05 00:24:18;;;;;;;3.15;2.38;;;;;;;15.50;43.73;99906.31;5049469;28;20070;-77
2021/05/05 00:26:45;;;;;;;3.40;2.45;;;;;;;15.52;43.22;99902.63;5048311;28;20042;-77
2021/05/05 00:29:11;;;;;;;3.50;2.50;;;;;;;15.46;43.49;99898.66;5052543;28;20068;-77
2021/05/05 00:31:38;;;;;;;4.05;2.42;;;;;;;15.48;42.29;99897.72;5048029;28;20114;-77
2021/05/05 00:34:05;;;;;;;2.58;2.20;;;;;;;15.43;43.29;99903.31;5045851;28;20136;-79
2021/05/05 00:36:32;;;;;;;3.65;2.33;;;;;;;15.37;42.92;99890.66;5051675;28;20045;-78
2021/05/05 00:38:59;;;;;;;2.72;2.30;;;;;;;15.49;41.42;99896.75;5050263;28;20141;-79
2021/05/05 00:41:25;;;;;;;3.80;1.95;;;;;;;15.40;41.42;99891.25;5050071;28;20037;-79
2021/05/05 00:43:51;;;;;;;2.40;1.92;;;;;;;15.50;41.85;99890.53;5053181;28;20044;-79
2021/05/05 00:46:18;;;;;;;2.72;1.80;;;;;;;15.56;41.14;99880.41;5055228;28;20037;-80
2021/05/05 00:48:45;;;;;;;2.15;1.92;;;;;;;15.40;42.36;99882.53;5051546;28;20052;-80
2021/05/05 00:51:11;;;;;;;2.47;2.28;;;;;;;15.34;42.67;99888.25;5048660;28;20072;-80
2021/05/05 00:53:40;;;;;;;2.50;2.30;;;;;;;15.41;42.39;99885.03;5051058;28;20091;-80
2021/05/05 00:56:08;;;;;;;2.05;1.95;;;;;;;15.49;40.62;99887.06;5043230;28;20123;-80
2021/05/05 00:58:34;;;;;;;9.98;2.72;;;;;;;15.56;39.21;99877.81;5055361;28;20059;-81
2021/05/05 01:01:02;;;;;;;3.30;1.77;;;;;;;15.55;38.54;99876.09;5037406;28;20044;-82
2021/05/05 01:03:29;;;;;;;1.48;1.38;;;;;;;15.60;37.65;99868.69;5052605;28;20124;-81
2021/05/05 01:05:57;;;;;;;2.50;1.80;;;;;;;15.60;37.24;99863.44;5052330;28;20500;-83
2021/05/05 01:08:24;;;;;;;3.13;1.77;;;;;;;15.57;36.92;99862.88;5052066;28;20071;-82
2021/05/05 01:10:50;;;;;;;2.80;2.03;;;;;;;15.57;36.48;99861.06;5054722;28;20048;-82
2021/05/05 01:13:19;;;;;;;2.00;1.60;;;;;;;15.62;36.21;99856.31;5050362;28;20071;-84
2021/05/05 01:15:46;;;;;;;1.25;1.15;;;;;;;15.63;36.46;99860.63;5047982;28;20475;-85
2021/05/05 01:18:13;;;;;;;1.95;1.77;;;;;;;15.54;36.18;99856.03;5058337;28;20032;-83
2021/05/05 01:20:40;;;;;;;3.38;2.10;;;;;;;15.62;35.94;99840.53;5053289;28;20048;-82
2021/05/05 01:23:07;;;;;;;1.73;1.40;;;;;;;15.60;35.90;99844.22;5053724;28;20041;-78
2021/05/05 01:25:34;;;;;;;1.70;1.42;;;;;;;15.60;35.95;99839.81;5055365;28;20071;-80
2021/05/05 01:28:01;;;;;;;5.47;2.03;;;;;;;15.59;37.20;99848.66;5054578;28;20036;-84
2021/05/05 01:30:28;;;;;;;2.55;2.35;;;;;;;15.15;39.50;99847.63;5056048;28;20079;-84
2021/05/05 01:32:54;;;;;;;4.53;3.80;;;;;;;14.51;42.40;99856.78;5034306;28;20072;-83
2021/05/05 01:35:24;;;;;;;7.63;3.85;;;;;;;14.67;42.95;99863.44;5057820;28;20082;-84
2021/05/05 01:37:52;;;;;;;4.38;3.08;;;;;;;14.19;44.72;99853.81;5035099;28;20056;-84
2021/05/05 01:40:32;;;;;;;8.27;3.42;;;;;;;14.22;44.86;99840.47;5049794;28;20070;-84
2021/05/05 01:43:00;;;;;;;4.90;3.70;;;;;;;13.94;45.34;99845.06;5046094;28;20051;-77
2021/05/05 01:45:28;;;;;;;7.88;4.07;;;;;;;14.02;45.68;99839.31;5045566;28;20063;-74
2021/05/05 01:48:00;;;;;;;4.60;3.58;;;;;;;14.12;45.64;99846.41;5046488;28;20127;-73
2021/05/05 01:50:29;;;;;;;4.32;3.88;;;;;;;14.33;45.87;99845.81;5053599;28;20126;-81
2021/05/05 01:52:55;;;;;;;5.00;4.30;;;;;;;14.15;45.28;99840.94;5056823;28;20033;-80
2021/05/05 01:55:23;;;;;;;9.15;4.70;;;;;;;14.02;45.54;99834.06;5017995;28;20045;-79
2021/05/05 01:57:50;;;;;;;10.70;5.70;;;;;;;14.19;45.81;99831.06;5031518;28;20152;-80
2021/05/05 02:00:27;;;;;;;8.57;4.22;;;;;;;14.31;45.04;99829.34;5044812;28;20055;-79
2021/05/05 02:03:00;;;;;;;10.10;5.07;;;;;;;14.37;44.03;99828.91;5034856;28;20041;-81
2021/05/05 02:05:29;;;;;;;5.50;4.28;;;;;;;14.31;45.62;99814.44;5053902;28;20045;-80
2021/05/05 02:08:03;;;;;;;9.45;4.30;;;;;;;14.33;45.05;99809.94;5043799;28;20033;-80
2021/05/05 02:10:31;;;;;;;5.95;3.90;;;;;;;14.50;44.84;99802.66;5040719;28;20065;-80
2021/05/05 02:12:58;;;;;;;5.43;4.35;;;;;;;14.46;44.78;99809.88;5035081;28;20037;-80
2021/05/05 02:15:24;;;;;;;4.10;3.65;;;;;;;14.41;45.06;99807.59;5056577;28;20037;-79
2021/05/05 02:17:58;;;;;;;8.35;6.10;;;;;;;14.46;45.31;99807.25;5046105;28;20124;-79
2021/05/05 02:20:25;;;;;;;5.05;4.50;;;;;;;14.53;44.64;99802.44;5048420;28;20120;-80
2021/05/05 02:22:53;;;;;;;4.90;4.40;;;;;;;14.32;45.71;99810.03;5050306;28;20041;-79
2021/05/05 02:25:20;;;;;;;8.45;4.25;;;;;;;14.35;45.58;99799.34;5052487;28;20071;-80
2021/05/05 02:27:49;;;;;;;6.00;4.50;;;;;;;14.41;44.57;99804.13;5050800;28;20519;-81
2021/05/05 02:30:21;;;;;;;8.93;4.37;;;;;;;14.45;44.64;99795.09;5036636;28;20053;-83
2021/05/05 02:33:10;;;;;;;6.85;5.43;;;;;;;14.31;45.04;99793.47;5033164;28;20500;-81
2021/05/05 02:35:37;;;;;;;5.90;5.03;;;;;;;14.25;45.63;99795.72;5050652;28;20041;-80
2021/05/05 02:38:07;;;;;;;5.53;5.03;;;;;;;14.11;46.48;99791.44;5048735;28;20640;-77
2021/05/05 02:40:36;;;;;;;14.52;6.30;;;;;;;14.10;46.44;99795.84;5046005;28;20045;-79
2021/05/05 02:43:03;;;;;;;6.82;4.55;;;;;;;14.10;46.08;99787.16;5032185;28;20043;-79
2021/05/05 02:45:30;;;;;;;6.55;5.00;;;;;;;14.08;45.99;99787.28;5054132;28;20037;-79
2021/05/05 02:47:57;;;;;;;8.55;5.05;;;;;;;14.11;46.11;99787.06;5050668;28;20037;-80
2021/05/05 02:50:24;;;;;;;10.00;5.75;;;;;;;14.03;46.29;99785.94;5053676;28;20088;-81
2021/05/05 02:52:51;;;;;;;7.78;5.53;;;;;;;14.14;46.16;99784.22;5045782;28;20045;-80
2021/05/05 02:55:18;;;;;;;9.40;5.95;;;;;;;14.01;46.71;99785.19;5021013;28;20048;-80
2021/05/05 02:57:48;;;;;;;10.65;6.15;;;;;;;14.23;45.31;99792.38;5029995;28;20128;-82
2021/05/05 03:00:15;;;;;;;12.38;5.38;;;;;;;14.26;45.52;99797.38;5039223;28;20045;-81
2021/05/05 03:02:41;;;;;;;7.00;5.95;;;;;;;13.94;46.85;99800.53;5057259;28;20045;-81
2021/05/05 03:05:09;;;;;;;7.88;5.00;;;;;;;13.92;46.71;99797.19;5055280;28;20048;-81
2021/05/05 03:07:36;;;;;;;6.10;4.15;;;;;;;13.88;47.20;99798.34;5050298;28;20033;-77
2021/05/05 03:10:03;;;;;;;5.40;4.90;;;;;;;13.88;47.36;99791.31;5054728;28;20048;-76
2021/05/05 03:12:29;;;;;;;7.32;4.90;;;;;;;13.83;47.46;99789.97;5047560;28;20037;-76
2021/05/05 03:14:56;;;;;;;6.75;4.10;;;;;;;13.95;46.94;99790.88;5047183;28;20041;-80
2021/05/05 03:17:22;;;;;;;7.70;4.55;;;;;;;13.87;46.83;99788.81;5042333;28;20029;-80
2021/05/05 03:19:51;;;;;;;9.88;3.97;;;;;;;13.72;47.11;99785.47;5047574;28;20057;-78
2021/05/05 03:22:18;;;;;;;10.00;5.53;;;;;;;13.69;47.20;99790.09;5049264;28;20055;-77
2021/05/05 03:24:45;;;;;;;8.65;4.60;;;;;;;13.87;47.07;99770.47;5053372;28;20403;-80
2021/05/05 03:27:12;;;;;;;6.68;3.70;;;;;;;13.89;46.85;99773.81;5054734;28;20124;-79
2021/05/05 03:29:40;;;;;;;4.45;3.97;;;;;;;13.58;48.20;99770.75;5046076;28;20047;-79
2021/05/05 03:32:06;;;;;;;9.55;3.55;;;;;;;13.59;48.44;99772.41;5042679;28;20037;-79
2021/05/05 03:34:33;;;;;;;5.45;4.18;;;;;;;13.57;48.26;99757.75;5032097;28;20085;-79
2021/05/05 03:36:59;;;;;;;7.50;3.65;;;;;;;13.53;47.68;99766.75;5037200;28;20476;-79
2021/05/05 03:39:26;;;;;;;5.50;3.42;;;;;;;13.78;47.12;99760.63;5047346;28;20053;-81
2021/05/05 03:41:52;;;;;;;5.75;4.18;;;;;;;13.64;47.65;99761.63;5050115;28;20064;-82
2021/05/05 03:44:23;;;;;;;7.30;3.10;;;;;;;13.66;47.30;99764.97;5058530;28;20406;-74
2021/05/05 03:46:49;;;;;;;4.65;4.18;;;;;;;13.53;48.85;99770.22;5050116;28;20083;-76
2021/05/05 03:49:16;;;;;;;5.40;3.55;;;;;;;13.55;47.69;99764.88;5055000;28;20193;-76
2021/05/05 03:51:42;;;;;;;6.88;3.22;;;;;;;13.82;47.13;99755.06;5059324;28;20056;-76
2021/05/05 03:54:09;;;;;;;11.65;4.53;;;;;;;13.22;49.29;99752.34;5058839;28;20087;-76
2021/05/05 03:56:35;;;;;;;10.82;5.22;;;;;;;13.01;49.96;99759.84;5062906;28;20480;-76
2021/05/05 03:59:02;;;;;;;11.55;5.25;;;;;;;13.25;49.26;99752.97;5057728;28;20095;-75
2021/05/05 04:01:28;;;;;;;10.82;5.35;;;;;;;13.09;49.72;99745.28;5058482;28;20072;-76
2021/05/05 04:03:55;;;;;;;13.50;5.43;;;;;;;13.15;49.60;99740.56;5055250;28;20084;-76
2021/05/05 04:06:22;;;;;;;6.50;4.63;;;;;;;13.12;50.48;99744.25;5056137;28;20435;-76
2021/05/05 04:08:48;;;;;;;7.53;4.65;;;;;;;13.33;49.91;99749.81;5053928;28;20072;-75
2021/05/05 04:11:15;;;;;;;9.20;4.55;;;;;;;13.28;50.11;99744.91;5053807;28;20068;-72
2021/05/05 04:13:46;;;;;;;6.85;3.67;;;;;;;13.30;49.82;99736.94;5059426;28;20122;-71
2021/05/05 04:16:31;;;;;;;5.25;4.00;;;;;;;13.29;49.53;99732.66;5054054;28;20145;-74
2021/05/05 04:19:15;;;;;;;5.93;3.25;;;;;;;13.50;49.34;99733.78;5036663;28;20373;-74
2021/05/05 04:22:01;;;;;;;5.75;3.60;;;;;;;13.39;49.51;99745.94;5061050;28;20057;-73
2021/05/05 04:24:46;;;;;;;4.80;3.42;;;;;;;13.21;49.29;99737.53;5057062;28;20021;-73
2021/05/05 04:27:14;;;;;;;7.82;3.60;;;;;;;13.48;48.25;99734.84;5042137;28;20032;-72
2021/05/05 04:29:42;;;;;;;10.52;3.88;;;;;;;13.46;48.05;99727.06;5061079;28;20037;-74
2021/05/05 04:32:09;;;;;;;7.45;4.45;;;;;;;13.47;48.61;99752.31;5065084;28;20066;-70
2021/05/05 04:34:36;;;;;;;8.40;4.95;;;;;;;13.45;48.56;99754.19;5061290;28;20028;-71
2021/05/05 04:37:05;;;;;;;3.42;2.80;;;;;;;13.52;49.21;99749.38;5064147;28;20056;-73
2021/05/05 04:39:33;;;;;;;13.02;3.70;;;;;;;13.72;47.41;99747.97;5062719;28;20155;-71
2021/05/05 04:42:00;;;;;;;5.50;4.43;;;;;;;13.68;48.34;99757.81;5056420;28;20502;-70
2021/05/05 04:44:27;;;;;;;12.13;3.97;;;;;;;13.73;48.62;99754.88;5062244;28;20552;-69
2021/05/05 04:46:53;;;;;;;5.43;4.47;;;;;;;13.71;48.54;99754.16;5058481;28;20452;-70
2021/05/05 04:49:20;;;;;;;5.95;4.28;;;;;;;13.95;47.62;99755.03;5066225;28;20041;-70
2021/05/05 04:51:46;;;;;;;7.05;4.00;;;;;;;14.24;45.77;99755.56;5044505;28;20069;-69
2021/05/05 04:54:13;;;;;;;7.43;3.40;;;;;;;14.42;45.15;99762.06;5055264;28;20044;-70
2021/05/05 04:56:39;;;;;;;4.78;3.20;;;;;;;14.81;43.62;99756.66;5058546;28;20488;-71
2021/05/05 04:59:06;;;;;;;12.38;4.25;;;;;;;15.27;42.05;99747.88;5062072;28;20083;-72
2021/05/05 05:01:32;;;;;;;6.85;4.00;;;;;;;15.63;41.18;99742.41;5059794;28;20040;-75
2021/05/05 05:03:58;;;;;;;14.90;5.22;;;;;;;15.47;41.96;99744.53;5050161;28;20067;-77
2021/05/05 05:06:25;;;;;;;9.65;4.80;;;;;;;14.97;46.24;99740.53;5053453;28;20045;-76
2021/05/05 05:08:52;;;;;;;10.27;5.30;;;;;;;14.73;47.61;99740.63;5053547;28;20041;-76
2021/05/05 05:11:19;;;;;;;7.68;5.05;;;;;;;15.44;46.19;99752.63;5039652;28;20068;-76
2021/05/05 05:13:45;;;;;;;12.38;4.75;;;;;;;15.49;45.76;99750.50;5062404;28;20065;-76
2021/05/05 05:16:12;;;;;;;9.00;5.22;;;;;;;15.14;46.66;99756.69;5037492;28;20446;-76
2021/05/05 05:18:38;;;;;;;11.48;4.75;;;;;;;15.62;45.25;99764.34;5053578;28;20044;-75
2021/05/05 05:21:05;;;;;;;16.33;6.65;;;;;;;15.72;46.39;99753.97;5052581;28;20053;-75
2021/05/05 05:23:33;;;;;;;10.77;5.80;;;;;;;16.07;46.05;99755.56;5048703;28;20099;-72
2021/05/05 05:26:00;;;;;;;11.38;5.65;;;;;;;15.93;45.63;99754.91;5046373;28;20107;-75
2021/05/05 05:28:28;;;;;;;11.65;5.70;;;;;;;16.11;45.68;99754.38;5053771;28;20045;-76
2021/05/05 05:30:54;;;;;;;8.50;5.60;;;;;;;16.69;44.56;99757.50;5062537;28;20090;-76
2021/05/05 05:33:21;;;;;;;9.40;5.75;;;;;;;17.30;43.79;99757.59;5061986;28;20097;-75
2021/05/05 05:35:48;;;;;;;5.72;4.85;;;;;;;17.52;40.18;99761.88;5064319;28;20385;-73
2021/05/05 05:38:14;;;;;;;8.38;4.72;;;;;;;17.80;40.41;99765.63;5059790;28;20441;-75
2021/05/05 05:40:40;;;;;;;16.10;5.38;;;;;;;17.74;41.23;99777.53;5062367;28;20041;-73
2021/05/05 05:43:07;;;;;;;4.93;4.40;;;;;;;18.42;40.97;99777.66;5053188;28;20103;-69
2021/05/05 05:45:33;;;;;;;9.18;5.70;;;;;;;18.21;43.12;99766.38;5046421;28;20135;-74
2021/05/05 05:48:00;;;;;;;9.35;6.18;;;;;;;17.51;43.91;99768.09;5049620;28;20078;-74
2021/05/05 05:50:27;;;;;;;9.63;6.03;;;;;;;18.39;40.93;99775.31;5056136;28;20045;-74
2021/05/05 05:52:53;;;;;;;13.05;7.13;;;;;;;18.52;41.35;99767.09;5053628;28;20039;-74
2021/05/05 05:55:20;;;;;;;11.93;5.13;;;;;;;18.60;37.65;99759.31;5057828;28;20119;-74
2021/05/05 05:57:52;;;;;;;10.68;4.75;;;;;;;18.96;37.13;99764.84;5053084;28;20563;-67
2021/05/05 06:00:20;;;;;;;14.50;6.55;;;;;;;19.63;36.23;99771.78;5064829;28;20083;-75
2021/05/05 06:02:46;;;;;;;19.13;5.85;;;;;;;20.20;34.93;99776.91;5062391;28;20033;-75
2021/05/05 06:05:13;;;;;;;10.35;5.28;;;;;;;19.88;35.16;99764.97;5056464;28;20041;-75
2021/05/05 06:07:39;;;;;;;20.52;7.18;;;;;;;20.13;34.90;99763.41;5057111;28;20503;-75
2021/05/05 06:10:09;;;;;;;14.90;6.95;;;;;;;20.17;34.82;99777.19;5055146;28;20041;-75
2021/05/05 06:12:35;;;;;;;15.23;5.32;;;;;;;20.32;34.91;99773.03;5054425;28;20045;-75
2021/05/05 06:15:04;;;;;;;15.63;6.05;;;;;;;19.95;35.28;99762.56;5053331;28;20128;-75
2021/05/05 06:17:31;;;;;;;14.43;6.72;;;;;;;19.92;35.39;99771.66;5051913;28;20041;-74
2021/05/05 06:19:57;;;;;;;15.73;7.05;;;;;;;20.44;34.99;99776.28;5064400;28;20069;-75
2021/05/05 06:22:24;;;;;;;9.85;5.65;;;;;;;20.38;35.48;99775.91;5059059;28;20073;-75
2021/05/05 06:24:50;;;;;;;11.90;6.82;;;;;;;20.96;34.96;99768.47;5061082;28;20491;-75
2021/05/05 06:27:16;;;;;;;7.38;5.80;;;;;;;21.21;33.97;99759.72;5056806;28;20072;-75
2021/05/05 06:29:43;;;;;;;17.45;7.75;;;;;;;20.35;35.50;99755.06;5056696;28;20049;-75
2021/05/05 06:32:09;;;;;;;12.35;6.55;;;;;;;20.25;35.67;99762.22;5055181;28;20123;-75
2021/05/05 06:34:37;;;;;;;11.68;6.55;;;;;;;20.43;35.81;99770.16;5052999;28;20056;-75
2021/05/05 06:37:03;;;;;;;11.05;6.10;;;;;;;20.41;35.93;99759.75;5052143;28;20037;-75
2021/05/05 06:39:33;;;;;;;13.93;6.70;;;;;;;21.23;35.16;99760.38;5056220;28;20069;-75
2021/05/05 06:42:00;;;;;;;16.58;6.60;;;;;;;21.23;35.64;99760.38;5050068;28;20055;-73
2021/05/05 06:44:27;;;;;;;11.13;5.72;;;;;;;21.95;34.17;99761.72;5050598;28;20057;-74
2021/05/05 06:46:57;;;;;;;8.65;7.30;;;;;;;21.81;33.11;99753.53;5055522;28;20045;-73
2021/05/05 06:49:24;;;;;;;11.68;7.03;;;;;;;22.15;33.02;99756.16;5050491;28;20045;-74
2021/05/05 06:51:51;;;;;;;10.00;6.68;;;;;;;22.70;32.23;99756.38;5049720;28;20567;-75
2021/05/05 06:54:18;;;;;;;12.13;6.60;;;;;;;22.16;32.95;99744.56;5049268;28;20045;-75
2021/05/05 06:56:45;;;;;;;21.63;8.25;;;;;;;22.72;32.47;99756.19;5047505;28;20082;-75
2021/05/05 06:59:12;;;;;;;13.95;7.78;;;;;;;22.97;32.27;99749.06;5050496;28;20427;-75
2021/05/05 07:01:39;;;;;;;12.30;6.53;;;;;;;22.30;33.10;99743.91;5048245;28;20037;-75
2021/05/05 07:04:10;;;;;;;9.98;6.32;;;;;;;22.90;32.31;99730.28;5041193;28;20048;-76
2021/05/05 07:06:43;;;;;;;8.18;5.72;;;;;;;23.31;31.66;99724.88;5046073;28;20120;-75
2021/05/05 07:09:29;;;;;;;10.93;5.07;;;;;;;23.52;31.13;99737.63;5055127;28;20143;-75
2021/05/05 07:11:56;;;;;;;10.85;6.00;;;;;;;23.26;32.15;99719.25;5053566;28;20037;-75
2021/05/05 07:14:23;;;;;;;13.50;5.88;;;;;;;24.32;31.30;99729.38;5047809;28;20042;-75
2021/05/05 07:16:49;;;;;;;5.80;4.93;;;;;;;25.16;29.81;99721.34;5027858;28;20041;-75
2021/05/05 07:19:16;;;;;;;9.27;6.07;;;;;;;23.97;30.07;99723.63;5055252;28;20393;-75
2021/05/05 07:21:42;;;;;;;5.93;5.32;;;;;;;24.92;29.45;99712.53;5050502;28;20041;-75
2021/05/05 07:24:09;;;;;;;9.15;5.95;;;;;;;24.12;29.43;99705.03;5048648;28;20057;-75
2021/05/05 07:26:36;;;;;;;5.90;4.70;;;;;;;24.48;30.17;99704.47;5050656;28;20062;-75
2021/05/05 07:29:03;;;;;;;7.55;5.30;;;;;;;24.23;30.32;99701.13;5051387;28;20037;-74
2021/05/05 07:31:29;;;;;;;8.45;5.70;;;;;;;24.42;29.43;99703.34;5045808;28;20044;-75
2021/05/05 07:33:57;;;;;;;13.68;5.90;;;;;;;24.54;29.69;99696.59;5051378;28;20120;-75
2021/05/05 07:36:28;;;;;;;7.32;5.15;;;;;;;25.33;28.69;99688.94;5048596;28;20076;-74
2021/05/05 07:49:24;;;;;;;9.13;5.45;;;;;;;25.18;28.32;99673.97;5049018;28;20048;-75
2021/05/05 07:51:50;;;;;;;6.00;4.85;;;;;;;24.33;29.73;99677.75;5052024;28;20087;-74
2021/05/05 07:54:16;;;;;;;7.93;4.63;;;;;;;24.85;28.46;99682.31;5055425;28;22396;-75
2021/05/05 07:56:42;;;;;;;5.85;4.30;;;;;;;25.39;28.16;99671.38;5053977;28;20035;-75
2021/05/05 07:59:08;;;;;;;10.55;5.28;;;;;;;25.21;28.25;99662.94;5046792;28;20484;-75
2021/05/05 08:01:36;;;;;;;9.63;4.35;;;;;;;25.47;27.60;99662.44;5054868;28;20037;-75
2021/05/05 08:04:04;;;;;;;13.02;4.60;;;;;;;24.96;28.33;99639.19;5050237;28;20399;-75
2021/05/05 08:06:32;;;;;;;8.30;4.03;;;;;;;25.14;28.40;99640.69;5051878;28;20035;-74
2021/05/05 08:09:00;;;;;;;9.82;5.63;;;;;;;25.17;27.88;99646.47;5054674;28;20079;-75
2021/05/05 08:11:26;;;;;;;13.23;4.55;;;;;;;25.27;28.23;99632.84;5050697;28;20041;-75
2021/05/05 08:13:53;;;;;;;6.47;4.60;;;;;;;25.90;27.76;99647.34;5050584;28;20051;-74
2021/05/05 08:16:20;;;;;;;9.60;4.53;;;;;;;26.31;27.07;99636.84;5051732;28;20061;-74
2021/05/05 08:18:47;;;;;;;8.77;4.50;;;;;;;25.65;28.16;99635.34;5047714;28;20436;-75
2021/05/05 08:21:15;;;;;;;6.20;4.95;;;;;;;24.90;28.82;99634.59;5054246;28;20103;-74
2021/05/05 08:23:41;;;;;;;5.28;4.78;;;;;;;25.65;28.16;99630.00;5050930;28;20042;-75
2021/05/05 08:26:10;;;;;;;7.85;5.07;;;;;;;26.32;27.39;99640.34;5052632;28;20065;-75
2021/05/05 08:28:37;;;;;;;9.50;6.25;;;;;;;25.74;27.98;99637.75;5051125;28;20513;-75
2021/05/05 08:31:04;;;;;;;8.25;5.18;;;;;;;26.10;28.16;99629.69;5043471;28;20044;-75
2021/05/05 08:33:41;;;;;;;11.48;5.10;;;;;;;25.77;28.71;99620.50;5054015;28;20410;-75
2021/05/05 08:36:08;;;;;;;9.13;5.78;;;;;;;26.87;26.88;99622.63;5050705;28;20040;-75
2021/05/05 08:38:34;;;;;;;7.18;5.82;;;;;;;27.29;26.54;99618.13;5048388;28;20052;-75
2021/05/05 08:41:02;;;;;;;5.78;4.75;;;;;;;26.36;27.43;99614.84;5050622;28;20075;-75
2021/05/05 08:43:31;;;;;;;8.40;5.38;;;;;;;25.52;28.59;99636.03;5045050;28;20079;-75
2021/05/05 08:45:59;;;;;;;6.22;4.72;;;;;;;26.29;27.15;99620.16;5053930;28;20395;-75
2021/05/05 08:48:26;;;;;;;9.52;4.40;;;;;;;27.19;26.49;99620.34;5048157;28;20039;-75
2021/05/05 08:50:52;;;;;;;8.45;4.63;;;;;;;27.64;26.44;99630.38;5049643;28;20571;-75
2021/05/05 08:53:19;;;;;;;12.40;4.90;;;;;;;27.04;25.89;99620.47;5053857;28;20090;-75
2021/05/05 08:55:45;;;;;;;9.23;4.40;;;;;;;27.40;26.29;99622.91;5043807;28;20045;-75
2021/05/05 08:58:12;;;;;;;4.70;3.55;;;;;;;27.89;26.49;99621.81;5051285;28;20064;-75
2021/05/05 09:00:39;;;;;;;9.80;3.28;;;;;;;27.62;26.13;99629.75;5048981;28;20428;-75
2021/05/05 09:03:08;;;;;;;7.03;4.22;;;;;;;27.69;26.81;99621.75;5053729;28;20075;-75
2021/05/05 09:05:53;;;;;;;9.30;2.78;;;;;;;27.73;26.21;99623.03;5050789;28;20086;-76
2021/05/05 09:08:24;;;;;;;9.27;1.73;;;;;;;27.73;26.34;99616.84;5049078;28;20056;-75
2021/05/05 09:10:59;;;;;;;4.93;1.85;;;;;;;27.69;26.24;99614.53;5054539;28;20045;-75
2021/05/05 09:13:51;;;;;;;2.08;1.67;;;;;;;27.57;26.05;99626.03;5051844;28;20080;-76
2021/05/05 09:16:27;;;;;;;1.85;1.40;;;;;;;27.44;26.26;99613.47;5043473;28;20072;-76
2021/05/05 09:19:00;;;;;;;7.22;2.55;;;;;;;27.47;27.02;99620.25;5036991;28;20091;-74
2021/05/05 09:21:33;;;;;;;2.80;1.58;;;;;;;27.39;26.95;99622.09;5050770;28;20072;-75
2021/05/05 09:24:25;;;;;;;7.45;1.60;;;;;;;27.01;26.91;99624.38;5032975;28;20099;-77
2021/05/05 09:26:57;;;;;;;5.28;2.00;;;;;;;26.95;26.95;99614.44;5054020;28;20049;-75
2021/05/05 09:29:43;;;;;;;5.85;1.63;;;;;;;26.77;27.88;99606.94;5057851;28;20043;-75
2021/05/05 09:32:11;;;;;;;8.57;3.30;;;;;;;26.61;28.26;99609.94;5049036;28;20037;-77
2021/05/05 09:34:39;;;;;;;2.88;1.65;;;;;;;26.44;28.92;99611.25;5045575;28;20056;-77
2021/05/05 09:37:08;;;;;;;4.53;1.70;;;;;;;26.37;28.82;99612.00;5051022;28;20488;-76
2021/05/05 09:39:39;;;;;;;18.48;1.77;;;;;;;26.30;28.71;99618.31;5049906;28;20480;-77
2021/05/05 09:42:29;;;;;;;5.28;2.10;;;;;;;26.15;28.65;99604.22;5048538;28;20040;-76
2021/05/05 09:44:59;;;;;;;3.50;1.45;;;;;;;26.11;28.73;99596.59;5050091;28;20046;-77
2021/05/05 09:47:55;;;;;;;4.05;1.92;;;;;;;25.85;29.25;99594.53;5058251;28;20083;-76
2021/05/05 09:50:37;;;;;;;4.60;1.30;;;;;;;25.90;29.81;99591.28;5047281;28;20566;-76
2021/05/05 09:53:26;;;;;;;2.35;1.23;;;;;;;25.70;30.01;99596.38;5033003;28;20080;-76
2021/05/05 09:55:52;;;;;;;7.70;2.00;;;;;;;25.68;29.99;99594.94;5052466;28;20092;-76
2021/05/05 09:58:30;;;;;;;5.03;1.73;;;;;;;25.51;29.70;99595.16;5050730;28;20370;-76
2021/05/05 10:01:06;;;;;;;5.03;2.28;;;;;;;25.32;30.21;99590.44;5048692;28;20037;-76
2021/05/05 10:03:53;;;;;;;5.57;1.50;;;;;;;25.26;30.06;99600.03;5049831;28;20264;-77
2021/05/05 10:06:37;;;;;;;21.38;2.55;;;;;;;25.00;30.02;99592.50;5044364;28;20041;-76
2021/05/05 10:09:04;;;;;;;4.97;2.38;;;;;;;24.94;30.21;99584.41;5050964;28;20037;-76
2021/05/05 10:11:36;;;;;;;4.93;1.73;;;;;;;24.96;30.35;99585.88;5045474;28;20036;-76
2021/05/05 10:14:17;;;;;;;3.35;1.38;;;;;;;24.79;30.88;99592.41;5055429;28;20047;-76
2021/05/05 10:16:48;;;;;;;5.85;1.65;;;;;;;24.77;30.94;99589.13;5051333;28;20033;-75
2021/05/05 10:19:23;;;;;;;2.95;2.13;;;;;;;24.77;31.31;99586.44;5041795;28;20540;-77
2021/05/05 10:21:54;;;;;;;8.25;1.58;;;;;;;24.72;30.71;99580.84;5043926;28;20088;-76
2021/05/05 10:24:22;;;;;;;2.88;1.42;;;;;;;24.65;31.22;99575.41;5053140;28;20071;-77
2021/05/05 10:26:49;;;;;;;4.18;1.70;;;;;;;24.64;31.29;99570.25;5048573;28;20041;-77
2021/05/05 10:29:16;;;;;;;5.68;1.52;;;;;;;24.61;31.75;99573.28;5057192;28;20049;-77
2021/05/05 10:31:58;;;;;;;2.38;1.55;;;;;;;24.55;32.05;99556.19;5052525;28;20388;-77
2021/05/05 10:34:30;;;;;;;2.72;1.33;;;;;;;24.59;32.15;99538.84;5054544;28;20052;-75
2021/05/05 10:37:01;;;;;;;2.20;1.52;;;;;;;24.59;32.52;99548.66;5047321;28;20142;-75
2021/05/05 10:39:33;;;;;;;2.30;1.45;;;;;;;24.63;32.32;99536.63;5051149;28;20109;-77
2021/05/05 10:41:59;;;;;;;2.30;1.20;;;;;;;24.52;31.90;99537.94;5046798;28;20068;-77
2021/05/05 10:44:46;;;;;;;2.97;1.85;;;;;;;24.64;31.78;99535.63;5053607;28;20121;-77
2021/05/05 10:47:34;;;;;;;3.15;1.30;;;;;;;24.69;31.83;99531.38;5052205;28;20048;-76
2021/05/05 10:50:13;;;;;;;1.52;1.20;;;;;;;24.74;32.10;99539.66;5049504;28;20049;-77
2021/05/05 10:52:57;;;;;;;2.67;1.10;;;;;;;24.77;31.67;99544.63;5046200;28;20033;-74
2021/05/05 10:55:35;;;;;;;2.40;1.40;;;;;;;24.84;31.77;99539.38;5053856;28;20075;-77
2021/05/05 10:58:13;;;;;;;3.90;1.45;;;;;;;24.81;31.31;99539.72;5054291;28;20127;-77
2021/05/05 11:00:50;;;;;;;1.92;1.30;;;;;;;24.83;31.21;99541.22;5045647;28;20076;-77
2021/05/05 11:03:18;;;;;;;3.63;1.23;;;;;;;24.72;31.38;99546.19;5050091;28;20488;-76
2021/05/05 11:05:47;;;;;;;5.00;1.85;;;;;;;24.70;31.41;99554.34;5047491;28;20067;-76
2021/05/05 11:08:39;;;;;;;7.10;1.30;;;;;;;24.75;32.02;99551.13;5052089;28;20083;-77
2021/05/05 11:11:06;;;;;;;2.28;1.42;;;;;;;24.64;31.45;99559.59;5048258;28;20033;-76
2021/05/05 11:13:35;;;;;;;7.88;1.85;;;;;;;24.66;30.75;99561.09;5049920;28;20036;-75
2021/05/05 11:16:02;;;;;;;5.70;1.40;;;;;;;24.63;31.87;99563.28;5046093;28;20040;-76
2021/05/05 11:18:34;;;;;;;3.42;1.40;;;;;;;24.66;31.85;99557.56;5051603;28;20052;-75
2021/05/05 11:21:05;;;;;;;10.25;2.00;;;;;;;24.62;31.32;99565.13;5041694;28;20056;-75
2021/05/05 11:23:44;;;;;;;3.58;1.30;;;;;;;24.61;31.35;99557.28;5051244;28;20032;-75
2021/05/05 11:26:19;;;;;;;7.55;1.20;;;;;;;24.58;31.96;99557.69;5047858;28;20049;-75
2021/05/05 11:28:57;;;;;;;2.67;1.17;;;;;;;24.54;31.89;99550.03;5046176;28;20075;-76
2021/05/05 11:31:46;;;;;;;5.03;1.42;;;;;;;24.54;31.97;99565.19;5047257;28;20424;-74
2021/05/05 11:34:19;;;;;;;2.80;1.20;;;;;;;24.59;32.57;99562.00;5056270;28;20049;-77
2021/05/05 11:36:55;;;;;;;2.05;1.48;;;;;;;24.64;32.12;99543.63;5055006;28;20037;-77
2021/05/05 11:39:23;;;;;;;3.85;1.58;;;;;;;24.61;31.83;99539.50;5056618;28;20075;-76
2021/05/05 11:42:12;;;;;;;8.27;2.70;;;;;;;24.62;31.60;99549.13;5060315;28;20136;-76
2021/05/05 11:45:06;;;;;;;3.08;1.60;;;;;;;24.48;32.14;99539.28;5059558;28;20036;-75
2021/05/05 11:47:38;;;;;;;5.90;1.45;;;;;;;24.47;32.20;99522.50;5043182;28;20075;-75
2021/05/05 11:50:07;;;;;;;4.15;1.30;;;;;;;24.46;31.99;99551.97;5048563;28;20044;-76
2021/05/05 11:52:37;;;;;;;2.10;1.38;;;;;;;24.33;32.37;99528.59;5044995;28;20496;-76
2021/05/05 11:55:07;;;;;;;4.18;1.33;;;;;;;24.38;32.21;99534.22;5032778;28;20042;-77